General Aviation Weather

Text Reports

Enter one or more of the following location identifiers separated by a space:

Zip Code, Four-Character ICAO or Three-Character IATA airport codes.

METAR - Aviation Routine Weather Report
KLNR - Lone Rock, Wisconsin
Updated at 2:56 AM GMT on February 10, 2016 (8:56 PM CST):
METAR KLNR 100256Z AUTO 32007KT 10SM CLR M12/M19 A3004 RMK AO2 SLP184 T11171189 51009
TAF - Terminal Area Forecast
KLNR - Lone Rock, Wisconsin
Updated at 2:56 AM GMT on February 10, 2016 (8:56 PM CST):
No TAF is currently available for this location.
Decoded:
No decoded TAF is available.
PIREP - Pilot Weather Report
KLNR - Lone Rock, Wisconsin
Updated at 2:56 AM GMT on February 10, 2016 (8:56 PM CST):
No PIREP is currently available for this location.
AIRMET - Airmens Meteorological Information
KLNR - Lone Rock, Wisconsin
Updated at 2:56 AM GMT on February 10, 2016 (8:56 PM CST):
No AIRMET is currently available for this location.
SIGMET - Significant Meteorological Information
KLNR - Lone Rock, Wisconsin
Updated at 2:56 AM GMT on February 10, 2016 (8:56 PM CST):
No SIGMET is currently available for this location.
NOTAM - Notice to Airmen
KLNR - Lone Rock, Wisconsin
Updated at 2:56 AM GMT on February 10, 2016 (8:56 PM CST):
No NOTAM is currently available for this location.
Forecast Area
KLNR - Lone Rock, Wisconsin
Updated at 2:56 AM GMT on February 10, 2016 (8:56 PM CST):
No NOTAM is currently available for this location.
Aviation Weather Maps